Time;durP1;ratioP1;P1;durP2;ratioP2;P2;SDS_P1;SDS_P2;PMS_P1;PMS_P2;Temp;Humidity;BMP_temperature;BMP_pressure;BME280_temperature;BME280_humidity;BME280_pressure;Samples;Min_cycle;Max_cycle;Signal;HPM_P1;HPM_P2
2024/03/12 00:00:56;;;;;;;2.28;0.80;;;21.20;52.80;;;;;;5079658;28;20024;-63
2024/03/12 00:03:22;;;;;;;2.00;0.95;;;21.20;52.80;;;;;;5078426;28;20024;-62
2024/03/12 00:05:47;;;;;;;1.20;0.77;;;21.30;52.80;;;;;;5081273;28;20073;-63
2024/03/12 00:08:14;;;;;;;0.90;0.57;;;21.20;52.70;;;;;;5082623;28;20360;-63
2024/03/12 00:10:39;;;;;;;2.00;0.70;;;21.20;52.70;;;;;;5082583;28;20522;-62
2024/03/12 00:13:06;;;;;;;2.08;0.70;;;21.20;52.70;;;;;;5080357;28;20025;-63
2024/03/12 00:15:35;;;;;;;1.10;0.63;;;21.20;52.70;;;;;;5081935;28;20047;-63
2024/03/12 00:18:04;;;;;;;2.10;0.80;;;21.20;52.70;;;;;;5079524;28;20044;-62
2024/03/12 00:20:33;;;;;;;1.42;0.70;;;21.20;52.70;;;;;;5080713;28;20043;-64
2024/03/12 00:23:00;;;;;;;2.20;0.70;;;21.20;52.60;;;;;;5082424;28;20052;-64
2024/03/12 00:25:26;;;;;;;0.80;0.50;;;21.20;52.60;;;;;;5081518;28;20254;-63
2024/03/12 00:27:54;;;;;;;1.13;0.70;;;21.20;52.60;;;;;;5079428;28;20147;-63
2024/03/12 00:30:24;;;;;;;1.42;0.60;;;21.20;52.60;;;;;;5079818;28;20028;-63
2024/03/12 00:32:54;;;;;;;1.27;0.60;;;21.20;52.60;;;;;;5079282;28;20487;-63
2024/03/12 00:35:23;;;;;;;;;;;21.20;52.60;;;;;;5096160;28;20028;-63
2024/03/12 00:37:50;;;;;;;1.98;0.93;;;21.20;52.60;;;;;;5080206;28;20257;-64
2024/03/12 00:40:19;;;;;;;0.98;0.65;;;21.20;52.60;;;;;;5078942;28;20528;-63
2024/03/12 00:42:46;;;;;;;1.25;0.60;;;21.20;52.60;;;;;;5081918;28;20020;-63
2024/03/12 00:45:12;;;;;;;1.83;0.70;;;21.20;52.60;;;;;;5078435;28;20102;-64
2024/03/12 00:47:42;;;;;;;1.08;0.60;;;21.20;52.60;;;;;;5079708;28;20403;-63
2024/03/12 00:50:08;;;;;;;;;;;21.20;52.60;;;;;;5079559;28;20035;-63
2024/03/12 00:52:36;;;;;;;0.95;0.60;;;21.20;52.50;;;;;;5077452;28;19908;-63
2024/03/12 00:55:03;;;;;;;1.35;0.70;;;21.20;52.60;;;;;;5078987;28;20481;-64
2024/03/12 00:57:30;;;;;;;1.52;0.70;;;21.20;52.60;;;;;;5079322;28;20025;-63
2024/03/12 00:59:55;;;;;;;2.65;0.80;;;21.20;52.80;;;;;;5080061;28;20443;-63
2024/03/12 01:02:21;;;;;;;1.38;0.80;;;21.20;52.60;;;;;;5080288;28;20071;-63
2024/03/12 01:04:47;;;;;;;1.23;0.77;;;21.20;52.60;;;;;;5080221;28;20020;-64
2024/03/12 01:07:13;;;;;;;1.17;0.70;;;21.20;52.50;;;;;;5080430;28;20032;-63
2024/03/12 01:09:41;;;;;;;1.08;0.70;;;21.10;52.50;;;;;;5081371;28;20032;-63
2024/03/12 01:12:11;;;;;;;1.88;1.05;;;21.20;52.60;;;;;;5080226;28;20029;-64
2024/03/12 01:14:37;;;;;;;1.48;0.70;;;21.20;52.60;;;;;;5078581;28;20514;-64
2024/03/12 01:17:06;;;;;;;0.60;0.60;;;21.10;52.50;;;;;;5078153;28;20460;-64
2024/03/12 01:19:33;;;;;;;1.77;0.68;;;21.10;52.50;;;;;;5080151;28;20110;-63
2024/03/12 01:21:59;;;;;;;1.40;0.70;;;21.10;52.50;;;;;;5080733;28;20024;-64
2024/03/12 01:24:26;;;;;;;1.85;0.80;;;21.10;52.50;;;;;;5078505;28;20031;-63
2024/03/12 01:26:52;;;;;;;0.80;0.60;;;21.10;52.40;;;;;;5078956;28;20086;-63
2024/03/12 01:29:18;;;;;;;1.42;0.77;;;21.10;52.50;;;;;;5077584;28;20082;-64
2024/03/12 01:31:44;;;;;;;2.30;0.70;;;21.10;52.50;;;;;;5077721;28;20032;-63
2024/03/12 01:34:13;;;;;;;1.58;0.70;;;21.10;52.50;;;;;;5077869;28;20472;-64
2024/03/12 01:36:39;;;;;;;1.20;0.60;;;21.10;52.40;;;;;;5081120;28;20032;-63
2024/03/12 01:39:08;;;;;;;0.93;0.60;;;21.10;52.50;;;;;;5079075;28;20031;-64
2024/03/12 01:41:41;;;;;;;1.35;0.70;;;21.10;52.50;;;;;;5060731;28;20047;-63
2024/03/12 01:44:10;;;;;;;1.10;0.70;;;21.00;52.40;;;;;;5078186;28;20020;-64
2024/03/12 01:46:36;;;;;;;1.80;0.75;;;21.10;52.50;;;;;;5078460;28;20028;-64
2024/03/12 01:49:08;;;;;;;1.13;0.60;;;21.10;52.50;;;;;;5078958;28;20098;-63
2024/03/12 01:51:35;;;;;;;1.30;0.73;;;21.10;52.50;;;;;;5078594;28;20024;-63
2024/03/12 01:54:03;;;;;;;0.95;0.65;;;21.10;52.50;;;;;;5077893;28;20028;-64
2024/03/12 01:56:32;;;;;;;0.93;0.60;;;21.10;52.40;;;;;;5075756;28;20027;-63
2024/03/12 01:58:58;;;;;;;1.00;0.83;;;21.10;52.50;;;;;;5074893;28;20098;-63
2024/03/12 02:01:25;;;;;;;1.10;0.63;;;21.10;52.40;;;;;;5074841;28;20496;-63
2024/03/12 02:03:51;;;;;;;1.50;0.50;;;21.10;52.50;;;;;;5080754;28;20021;-63
2024/03/12 02:06:23;;;;;;;0.57;0.55;;;21.10;52.50;;;;;;5078117;28;20032;-63
2024/03/12 02:08:50;;;;;;;0.93;0.63;;;21.10;52.40;;;;;;5078168;28;20101;-62
2024/03/12 02:11:16;;;;;;;0.85;0.60;;;21.10;52.50;;;;;;5077441;28;20032;-66
2024/03/12 02:13:42;;;;;;;1.08;0.70;;;21.10;52.50;;;;;;5078780;28;20398;-66
2024/03/12 02:16:10;;;;;;;0.68;0.50;;;21.00;52.40;;;;;;5079676;28;20024;-65
2024/03/12 02:18:36;;;;;;;1.77;0.70;;;21.00;52.40;;;;;;5077677;28;20024;-66
2024/03/12 02:21:03;;;;;;;0.98;0.70;;;21.00;52.40;;;;;;5078435;28;20150;-65
2024/03/12 02:23:36;;;;;;;1.75;1.25;;;21.00;52.40;;;;;;5078868;28;20104;-65
2024/03/12 02:26:03;;;;;;;1.23;0.60;;;21.00;52.40;;;;;;5077442;28;20025;-65
2024/03/12 02:28:28;;;;;;;0.90;0.70;;;21.00;52.40;;;;;;5079811;28;20173;-65
2024/03/12 02:30:54;;;;;;;1.25;0.60;;;21.00;52.40;;;;;;5059609;28;20116;-66
2024/03/12 02:33:20;;;;;;;1.40;0.65;;;21.00;52.40;;;;;;5079150;28;20035;-65
2024/03/12 02:35:46;;;;;;;0.90;0.70;;;21.00;52.40;;;;;;5079198;28;20029;-65
2024/03/12 02:38:11;;;;;;;0.93;0.60;;;21.00;52.40;;;;;;5078567;28;20502;-66
2024/03/12 02:40:38;;;;;;;1.05;0.55;;;21.00;52.40;;;;;;5078930;28;20490;-62
2024/03/12 02:43:03;;;;;;;0.70;0.50;;;21.00;52.50;;;;;;5077164;28;20024;-62
2024/03/12 02:45:29;;;;;;;1.55;0.70;;;21.00;52.40;;;;;;5080012;28;20492;-63
2024/03/12 02:47:55;;;;;;;1.08;0.77;;;21.00;52.50;;;;;;5076054;28;20020;-63
2024/03/12 02:50:21;;;;;;;1.25;0.60;;;21.00;52.40;;;;;;5077526;28;20025;-62
2024/03/12 02:52:47;;;;;;;0.60;0.60;;;21.00;52.40;;;;;;5077842;28;20403;-63
2024/03/12 02:55:13;;;;;;;1.27;0.70;;;21.00;52.40;;;;;;5079172;28;20028;-63
2024/03/12 02:57:39;;;;;;;1.40;0.70;;;21.00;52.40;;;;;;5077857;28;20083;-63
2024/03/12 03:00:11;;;;;;;1.42;0.70;;;21.00;52.50;;;;;;5080147;28;20489;-63
2024/03/12 03:02:37;;;;;;;1.20;0.70;;;21.00;52.50;;;;;;5073529;28;20057;-63
2024/03/12 03:05:06;;;;;;;0.77;0.60;;;21.00;52.40;;;;;;5079634;28;20032;-63
2024/03/12 03:07:35;;;;;;;1.10;0.63;;;20.90;52.40;;;;;;5061235;28;20150;-62
2024/03/12 03:10:01;;;;;;;0.90;0.68;;;21.00;52.50;;;;;;5076898;28;20043;-62
2024/03/12 03:12:27;;;;;;;1.17;0.75;;;20.90;52.40;;;;;;5079257;28;20059;-63
2024/03/12 03:14:53;;;;;;;0.55;0.43;;;20.90;52.40;;;;;;5077657;28;20077;-63
2024/03/12 03:17:20;;;;;;;0.77;0.60;;;20.90;52.40;;;;;;5076638;28;20055;-63
2024/03/12 03:19:46;;;;;;;1.05;0.60;;;20.90;52.40;;;;;;5078352;28;20086;-66
2024/03/12 03:22:11;;;;;;;0.80;0.60;;;20.90;52.40;;;;;;5075394;28;20059;-66
2024/03/12 03:24:37;;;;;;;0.85;0.55;;;20.90;52.40;;;;;;5078576;28;20488;-65
2024/03/12 03:27:03;;;;;;;0.95;0.60;;;20.90;52.40;;;;;;5078333;28;20028;-65
2024/03/12 03:29:32;;;;;;;0.85;0.55;;;20.90;52.40;;;;;;5078283;28;20028;-66
2024/03/12 03:31:58;;;;;;;1.73;0.70;;;20.90;52.40;;;;;;5075933;28;20034;-65
2024/03/12 03:34:28;;;;;;;1.17;0.50;;;20.90;52.40;;;;;;5080729;28;20537;-65
2024/03/12 03:36:57;;;;;;;0.85;0.60;;;20.90;52.40;;;;;;5080689;28;20095;-65
2024/03/12 03:39:26;;;;;;;0.90;0.60;;;20.90;52.40;;;;;;5065221;28;20028;-66
2024/03/12 03:41:54;;;;;;;1.58;0.60;;;20.90;52.40;;;;;;5081054;28;20089;-65
2024/03/12 03:44:20;;;;;;;1.00;0.70;;;20.90;52.40;;;;;;5080105;28;20103;-65
2024/03/12 03:46:46;;;;;;;1.25;0.50;;;20.80;52.30;;;;;;5082041;28;20036;-66
2024/03/12 03:49:12;;;;;;;1.20;0.90;;;20.90;52.40;;;;;;5080341;28;20506;-66
2024/03/12 03:51:37;;;;;;;0.50;0.50;;;20.90;52.40;;;;;;5080663;28;20118;-63
2024/03/12 03:54:03;;;;;;;0.98;0.60;;;20.80;52.40;;;;;;5079628;28;20045;-63
2024/03/12 03:56:30;;;;;;;0.93;0.63;;;20.90;52.40;;;;;;5081383;28;20388;-63
2024/03/12 03:59:00;;;;;;;0.93;0.60;;;20.80;52.40;;;;;;5082286;28;20429;-63
2024/03/12 04:01:28;;;;;;;1.08;0.70;;;20.90;52.40;;;;;;5080747;28;20016;-63
2024/03/12 04:03:55;;;;;;;0.93;0.70;;;20.80;52.40;;;;;;5079482;28;20524;-63
2024/03/12 04:06:21;;;;;;;1.20;0.70;;;20.80;52.40;;;;;;5081756;28;20469;-63
2024/03/12 04:08:51;;;;;;;0.88;0.60;;;20.90;52.40;;;;;;5084255;28;20492;-63
2024/03/12 04:11:20;;;;;;;;;;;20.80;52.40;;;;;;5063084;28;20032;-64
2024/03/12 04:13:46;;;;;;;0.75;0.60;;;20.80;52.40;;;;;;5080357;28;19915;-63
2024/03/12 04:16:12;;;;;;;0.98;0.70;;;20.80;52.30;;;;;;5082155;28;20035;-63
2024/03/12 04:18:38;;;;;;;1.10;0.60;;;20.80;52.40;;;;;;5063280;28;20126;-63
2024/03/12 04:21:04;;;;;;;1.35;0.60;;;20.80;52.30;;;;;;5079839;28;20491;-63
2024/03/12 04:23:30;;;;;;;0.85;0.65;;;20.80;52.40;;;;;;5081711;28;20495;-63
2024/03/12 04:25:55;;;;;;;0.52;0.50;;;20.80;52.40;;;;;;5080852;28;20201;-63
2024/03/12 04:28:22;;;;;;;0.55;0.50;;;20.80;52.40;;;;;;5080247;28;20099;-63
2024/03/12 04:30:51;;;;;;;1.02;0.65;;;20.80;52.30;;;;;;5077954;28;20036;-65
2024/03/12 04:33:17;;;;;;;1.67;0.65;;;20.80;52.40;;;;;;5080164;28;20078;-66
2024/03/12 04:35:46;;;;;;;0.82;0.60;;;20.80;52.30;;;;;;5083114;28;20555;-65
2024/03/12 04:38:14;;;;;;;0.80;0.57;;;20.80;52.30;;;;;;5082424;28;20035;-65
2024/03/12 04:40:43;;;;;;;0.80;0.70;;;20.80;52.30;;;;;;5080824;28;20563;-63
2024/03/12 04:43:09;;;;;;;0.70;0.60;;;20.80;52.30;;;;;;5080414;28;20135;-62
2024/03/12 04:45:34;;;;;;;0.93;0.50;;;20.80;52.30;;;;;;5080279;28;20031;-63
2024/03/12 04:48:00;;;;;;;0.65;0.60;;;20.80;52.40;;;;;;5077235;28;20103;-62
2024/03/12 04:50:26;;;;;;;0.63;0.60;;;20.70;52.30;;;;;;5083648;28;20039;-63
2024/03/12 04:52:52;;;;;;;0.70;0.50;;;20.80;52.30;;;;;;5080334;28;20110;-63
2024/03/12 04:55:18;;;;;;;1.25;0.70;;;20.80;52.30;;;;;;5084335;28;20036;-63
2024/03/12 04:57:43;;;;;;;1.02;0.65;;;20.70;52.30;;;;;;5080999;28;20051;-63
2024/03/12 05:00:18;;;;;;;1.77;0.60;;;20.70;52.30;;;;;;5080203;28;20020;-66
2024/03/12 05:02:51;;;;;;;0.63;0.50;;;20.70;52.30;;;;;;5080498;28;20036;-65
2024/03/12 05:05:21;;;;;;;0.98;0.50;;;20.70;52.30;;;;;;5079083;28;20016;-65
2024/03/12 05:07:47;;;;;;;0.70;0.70;;;20.70;52.30;;;;;;5079087;28;20036;-65
2024/03/12 05:10:16;;;;;;;0.60;0.60;;;20.70;52.80;;;;;;5081372;28;20480;-65
2024/03/12 05:12:42;;;;;;;0.90;0.60;;;20.80;52.40;;;;;;5078650;28;20049;-65
2024/03/12 05:15:09;;;;;;;1.08;0.80;;;20.70;52.30;;;;;;5078613;28;20035;-66
2024/03/12 05:17:39;;;;;;;1.00;0.70;;;20.70;52.30;;;;;;5081135;28;20139;-66
2024/03/12 05:20:17;;;;;;;0.73;0.60;;;20.70;52.30;;;;;;5078803;28;20446;-66
2024/03/12 05:22:43;;;;;;;0.93;0.60;;;20.70;52.30;;;;;;5078940;28;20021;-66
2024/03/12 05:25:13;;;;;;;0.80;0.60;;;20.70;52.30;;;;;;5079305;28;20039;-66
2024/03/12 05:27:42;;;;;;;0.55;0.50;;;20.70;52.30;;;;;;5078738;28;20028;-66
2024/03/12 05:30:14;;;;;;;0.52;0.52;;;20.70;52.30;;;;;;5078491;28;20123;-65
2024/03/12 05:32:48;;;;;;;0.68;0.55;;;20.70;52.30;;;;;;5079399;28;20488;-65
2024/03/12 05:35:20;;;;;;;0.98;0.60;;;20.70;52.90;;;;;;5078867;28;20028;-65
2024/03/12 05:40:46;;;;;;;0.93;0.70;;;20.70;52.40;;;;;;5079831;28;20050;-63
2024/03/12 05:48:40;;;;;;;1.02;0.68;;;20.70;52.50;;;;;;5076687;28;20523;-62
2024/03/12 05:51:07;;;;;;;1.27;0.80;;;20.70;52.50;;;;;;5094023;28;20115;-63
2024/03/12 05:53:36;;;;;;;1.00;0.60;;;20.70;52.60;;;;;;5080348;28;20024;-62
2024/03/12 05:56:07;;;;;;;2.05;0.63;;;20.70;52.60;;;;;;5093440;28;20032;-62
2024/03/12 05:58:33;;;;;;;1.38;0.80;;;20.70;52.70;;;;;;5078721;28;20033;-63
2024/03/12 06:00:59;;;;;;;2.00;0.70;;;20.70;52.70;;;;;;5078933;28;20103;-65
2024/03/12 06:03:24;;;;;;;1.25;0.70;;;20.70;52.80;;;;;;5075602;28;20055;-65
2024/03/12 06:05:50;;;;;;;0.77;0.60;;;20.70;52.80;;;;;;5080254;28;20028;-65
2024/03/12 06:08:16;;;;;;;1.50;0.80;;;20.70;52.80;;;;;;5079488;28;20020;-65
2024/03/12 06:10:42;;;;;;;1.30;0.75;;;20.70;52.80;;;;;;5082235;28;20495;-62
2024/03/12 06:13:07;;;;;;;1.05;0.68;;;20.70;52.80;;;;;;5075803;28;20038;-62
2024/03/12 06:15:33;;;;;;;1.10;0.73;;;20.70;52.80;;;;;;5078976;28;20497;-63
2024/03/12 06:18:02;;;;;;;1.35;0.70;;;20.70;53.30;;;;;;5078048;28;20024;-63
2024/03/12 06:20:28;;;;;;;1.30;0.77;;;20.70;52.70;;;;;;5076904;28;20032;-63
2024/03/12 06:22:54;;;;;;;1.25;0.70;;;20.70;52.80;;;;;;5077354;28;20737;-63
2024/03/12 06:25:19;;;;;;;1.08;0.70;;;20.70;52.70;;;;;;5079257;28;20025;-63
2024/03/12 06:27:45;;;;;;;0.68;0.60;;;20.70;52.70;;;;;;5074323;28;20032;-63
2024/03/12 06:30:11;;;;;;;1.25;0.70;;;20.70;52.70;;;;;;5077648;28;20428;-63
2024/03/12 06:32:37;;;;;;;2.30;0.90;;;20.70;52.70;;;;;;5080892;28;20028;-63
2024/03/12 06:35:03;;;;;;;1.08;0.70;;;20.60;52.70;;;;;;5077563;28;20131;-64
2024/03/12 06:37:28;;;;;;;1.23;0.80;;;20.70;52.80;;;;;;5078672;28;20095;-63
2024/03/12 06:39:55;;;;;;;1.90;0.60;;;20.70;52.70;;;;;;5078665;28;20028;-63
2024/03/12 06:42:26;;;;;;;1.30;0.70;;;20.60;52.70;;;;;;5076511;28;20078;-63
2024/03/12 06:44:54;;;;;;;1.05;0.50;;;20.70;52.80;;;;;;5079144;28;20410;-63
2024/03/12 06:47:20;;;;;;;1.00;0.70;;;20.70;52.80;;;;;;5078357;28;20033;-63
2024/03/12 06:49:47;;;;;;;1.08;0.73;;;20.70;53.30;;;;;;5073256;28;20025;-63
2024/03/12 06:52:15;;;;;;;1.48;0.90;;;20.70;52.80;;;;;;5079937;28;20024;-63
2024/03/12 06:54:41;;;;;;;0.95;0.68;;;20.60;52.70;;;;;;5079937;28;20476;-63
2024/03/12 06:57:07;;;;;;;1.40;0.80;;;20.60;52.70;;;;;;5077484;28;20033;-64
2024/03/12 06:59:33;;;;;;;1.75;0.90;;;20.60;52.70;;;;;;5060593;28;20066;-63
2024/03/12 07:02:00;;;;;;;1.02;0.70;;;20.60;52.70;;;;;;5076935;28;20645;-63
2024/03/12 07:04:34;;;;;;;0.95;0.60;;;20.70;52.80;;;;;;5076130;28;20514;-63
2024/03/12 07:07:06;;;;;;;1.73;0.80;;;20.60;52.70;;;;;;5078230;28;20031;-63
2024/03/12 07:09:35;;;;;;;1.80;0.82;;;20.70;52.80;;;;;;5084757;28;20029;-66
2024/03/12 07:12:05;;;;;;;0.85;0.70;;;20.60;52.70;;;;;;5082411;28;20040;-66
2024/03/12 07:14:39;;;;;;;1.83;0.85;;;20.70;53.10;;;;;;5082968;28;20035;-66
2024/03/12 07:17:07;;;;;;;1.00;0.60;;;20.60;52.70;;;;;;5083208;28;20058;-66
2024/03/12 07:19:39;;;;;;;1.40;0.80;;;20.70;52.80;;;;;;5079881;28;20492;-63
2024/03/12 07:22:08;;;;;;;1.20;0.70;;;20.60;52.70;;;;;;5080530;28;20039;-64
2024/03/12 07:24:35;;;;;;;1.83;0.70;;;20.60;52.70;;;;;;5080224;28;20032;-64
2024/03/12 07:27:03;;;;;;;1.50;0.77;;;20.60;52.70;;;;;;5081368;28;20186;-64
2024/03/12 07:29:30;;;;;;;1.33;0.80;;;20.60;52.70;;;;;;5078554;28;20028;-63
2024/03/12 07:31:56;;;;;;;1.65;0.80;;;20.60;52.70;;;;;;5083226;28;20028;-63
2024/03/12 07:34:22;;;;;;;1.40;0.70;;;20.60;52.70;;;;;;5078773;28;20082;-63
2024/03/12 07:36:48;;;;;;;1.85;0.80;;;20.60;52.70;;;;;;5080477;28;20029;-64
2024/03/12 07:39:31;;;;;;;1.65;0.80;;;20.60;52.70;;;;;;5081417;28;20020;-63
2024/03/12 07:41:59;;;;;;;2.05;0.98;;;20.60;52.70;;;;;;5066608;28;20025;-63
2024/03/12 07:44:26;;;;;;;0.95;0.60;;;20.60;52.70;;;;;;5083881;28;20491;-63
2024/03/12 07:46:52;;;;;;;1.88;0.80;;;20.60;52.70;;;;;;5079415;28;20039;-63
2024/03/12 07:49:21;;;;;;;1.58;0.90;;;20.60;52.70;;;;;;5079398;28;20544;-64
2024/03/12 07:51:51;;;;;;;2.15;1.10;;;20.60;52.70;;;;;;5082567;28;20024;-63
2024/03/12 07:54:18;;;;;;;;;;;20.60;52.70;;;;;;5081054;28;20532;-64
2024/03/12 07:56:48;;;;;;;1.92;0.90;;;20.60;52.80;;;;;;5082205;28;19934;-63
2024/03/12 07:59:15;;;;;;;1.55;0.90;;;20.60;52.80;;;;;;5080714;28;20128;-63
2024/03/12 08:01:40;;;;;;;2.60;0.73;;;20.60;52.70;;;;;;5082692;28;20016;-63
2024/03/12 08:04:06;;;;;;;1.60;0.82;;;20.60;52.80;;;;;;5078637;28;20473;-63
2024/03/12 08:06:32;;;;;;;1.33;0.70;;;20.60;52.70;;;;;;5079660;28;20016;-62
2024/03/12 08:08:58;;;;;;;1.08;0.80;;;20.60;52.80;;;;;;5081278;28;20033;-62
2024/03/12 08:11:24;;;;;;;1.73;0.80;;;20.60;52.80;;;;;;5081492;28;20094;-62
2024/03/12 08:13:49;;;;;;;2.08;0.90;;;20.60;52.70;;;;;;5083684;28;20034;-62
2024/03/12 08:16:15;;;;;;;1.55;0.80;;;20.60;52.70;;;;;;5079511;28;20391;-62
2024/03/12 08:18:41;;;;;;;1.55;0.90;;;20.60;52.80;;;;;;5078509;28;20032;-62
2024/03/12 08:21:08;;;;;;;1.75;0.95;;;20.50;52.70;;;;;;5078099;28;20035;-63
2024/03/12 08:23:34;;;;;;;1.85;1.00;;;20.60;52.80;;;;;;5080628;28;20400;-62
2024/03/12 08:26:01;;;;;;;2.22;1.20;;;20.60;52.80;;;;;;5078160;28;20028;-63
2024/03/12 08:28:28;;;;;;;1.83;0.90;;;20.50;52.70;;;;;;5081475;28;20028;-63
2024/03/12 08:30:53;;;;;;;1.08;0.63;;;20.60;52.80;;;;;;5081321;28;20568;-66
2024/03/12 08:33:19;;;;;;;1.30;0.80;;;20.60;52.70;;;;;;5081646;28;20051;-66
2024/03/12 08:35:45;;;;;;;1.35;0.93;;;20.60;52.70;;;;;;5078279;28;20436;-66
2024/03/12 08:38:10;;;;;;;1.75;0.90;;;20.50;52.70;;;;;;5081794;28;20112;-66
2024/03/12 08:40:36;;;;;;;1.35;0.80;;;20.50;52.70;;;;;;5084622;28;20090;-66
2024/03/12 08:43:02;;;;;;;1.40;0.90;;;20.60;52.70;;;;;;5080196;28;20449;-66
2024/03/12 08:45:27;;;;;;;1.73;0.93;;;20.50;52.70;;;;;;5080828;28;20028;-66
2024/03/12 08:47:53;;;;;;;1.50;0.90;;;20.50;52.70;;;;;;5082486;28;20477;-66
2024/03/12 08:50:18;;;;;;;1.83;0.90;;;20.50;52.70;;;;;;5078687;28;20043;-66
2024/03/12 08:52:44;;;;;;;1.90;0.95;;;20.50;52.70;;;;;;5079257;28;20500;-66
2024/03/12 08:55:10;;;;;;;1.48;0.88;;;20.60;52.80;;;;;;5078424;28;20110;-66
2024/03/12 08:57:35;;;;;;;1.77;0.90;;;20.50;52.70;;;;;;5080517;28;20111;-66
2024/03/12 09:00:01;;;;;;;2.35;0.88;;;20.50;52.70;;;;;;5081582;28;20524;-66
2024/03/12 09:02:27;;;;;;;1.38;0.90;;;20.50;52.70;;;;;;5097023;28;20035;-66
2024/03/12 09:04:53;;;;;;;1.58;0.88;;;20.60;52.70;;;;;;5078643;28;20111;-66
2024/03/12 09:07:19;;;;;;;1.60;0.82;;;20.50;52.70;;;;;;5080262;28;20020;-66
2024/03/12 09:09:45;;;;;;;2.05;0.82;;;20.50;52.70;;;;;;5080786;28;20549;-66
2024/03/12 09:12:11;;;;;;;1.15;0.77;;;20.50;52.70;;;;;;5082027;28;20095;-66
2024/03/12 09:14:36;;;;;;;1.17;0.80;;;20.50;52.70;;;;;;5061443;28;20098;-66
2024/03/12 09:17:05;;;;;;;2.38;0.90;;;20.50;52.70;;;;;;5081328;28;20035;-66
2024/03/12 09:19:31;;;;;;;1.27;0.90;;;20.50;52.70;;;;;;5080326;28;20361;-65
2024/03/12 09:21:58;;;;;;;2.28;0.93;;;20.50;52.80;;;;;;5078972;28;20025;-66
2024/03/12 09:24:24;;;;;;;1.52;0.80;;;20.50;52.70;;;;;;5078340;28;20035;-66
2024/03/12 09:26:51;;;;;;;1.77;1.10;;;20.50;52.70;;;;;;5079428;28;20114;-66
2024/03/12 09:29:17;;;;;;;1.98;0.93;;;20.50;52.70;;;;;;5079336;28;20503;-66
2024/03/12 09:31:43;;;;;;;1.40;0.90;;;20.50;52.70;;;;;;5076975;28;20028;-63
2024/03/12 09:34:12;;;;;;;1.92;1.23;;;20.50;52.70;;;;;;5077447;28;20028;-64
2024/03/12 09:36:38;;;;;;;1.67;0.90;;;20.50;52.70;;;;;;5077260;28;20078;-63
2024/03/12 09:39:10;;;;;;;2.63;1.00;;;20.50;52.70;;;;;;5082284;28;20477;-63
2024/03/12 09:41:38;;;;;;;1.80;0.90;;;20.50;52.70;;;;;;5079139;28;20441;-63
2024/03/12 09:44:07;;;;;;;1.80;1.10;;;20.50;52.70;;;;;;5080761;28;20107;-63
2024/03/12 09:46:36;;;;;;;1.85;0.88;;;20.50;52.70;;;;;;5078494;28;20132;-63
2024/03/12 09:49:02;;;;;;;1.40;0.90;;;20.50;52.70;;;;;;5079336;28;20131;-64
2024/03/12 09:51:30;;;;;;;1.50;0.90;;;20.50;52.70;;;;;;5075983;28;20535;-63
2024/03/12 09:53:56;;;;;;;2.42;1.00;;;20.50;52.70;;;;;;5080987;28;20024;-63
2024/03/12 09:56:23;;;;;;;2.10;1.00;;;20.50;52.70;;;;;;5076133;28;20036;-63
2024/03/12 09:58:48;;;;;;;2.22;1.00;;;20.50;52.70;;;;;;5077335;28;20055;-63
2024/03/12 10:01:14;;;;;;;1.58;0.90;;;20.50;52.70;;;;;;5077030;28;20029;-63
2024/03/12 10:03:41;;;;;;;1.75;0.93;;;20.50;52.70;;;;;;5077805;28;20078;-63
2024/03/12 10:06:07;;;;;;;1.95;0.82;;;20.50;52.70;;;;;;5076745;28;20424;-63
2024/03/12 10:08:32;;;;;;;1.83;0.90;;;20.50;52.70;;;;;;5079731;28;20035;-63
2024/03/12 10:11:01;;;;;;;1.65;0.80;;;20.50;52.70;;;;;;5078220;28;20500;-63
2024/03/12 10:13:28;;;;;;;1.17;0.77;;;20.50;52.80;;;;;;5077803;28;20020;-63
2024/03/12 10:16:03;;;;;;;1.45;0.90;;;20.50;52.70;;;;;;5076956;28;20044;-63
2024/03/12 10:18:30;;;;;;;1.35;0.80;;;20.50;53.20;;;;;;5078823;28;20139;-62
2024/03/12 10:20:58;;;;;;;1.13;0.70;;;20.50;53.20;;;;;;5093206;28;20052;-63
2024/03/12 10:23:25;;;;;;;1.35;0.80;;;20.50;52.70;;;;;;5077801;28;20443;-63
2024/03/12 10:25:52;;;;;;;1.52;0.70;;;20.40;52.60;;;;;;5075981;28;20542;-62
2024/03/12 10:28:24;;;;;;;1.98;1.02;;;20.50;52.70;;;;;;5075416;28;20043;-63
2024/03/12 10:30:51;;;;;;;1.38;0.80;;;20.50;52.70;;;;;;5061018;28;20074;-63
2024/03/12 10:33:18;;;;;;;1.80;0.90;;;20.50;52.70;;;;;;5078974;28;20106;-63
2024/03/12 10:35:45;;;;;;;1.20;0.82;;;20.50;52.70;;;;;;5075336;28;20446;-63
2024/03/12 10:38:25;;;;;;;0.90;0.60;;;20.50;52.70;;;;;;5079504;28;20107;-64
2024/03/12 10:40:56;;;;;;;1.42;0.82;;;20.50;52.70;;;;;;5079169;28;20074;-63
2024/03/12 10:43:24;;;;;;;1.00;0.80;;;20.50;52.70;;;;;;5081458;28;20017;-63
2024/03/12 10:45:50;;;;;;;1.40;0.80;;;20.40;52.60;;;;;;5085765;28;20089;-64
2024/03/12 10:48:18;;;;;;;1.55;0.90;;;20.50;52.70;;;;;;5083773;28;20031;-64
2024/03/12 10:50:44;;;;;;;1.45;0.95;;;20.50;52.70;;;;;;5085519;28;20057;-63
2024/03/12 10:53:11;;;;;;;1.67;0.90;;;20.50;52.70;;;;;;5085059;28;20056;-63
2024/03/12 10:55:38;;;;;;;1.25;0.90;;;20.40;52.60;;;;;;5086288;28;20028;-63
2024/03/12 10:58:06;;;;;;;1.30;0.80;;;20.50;52.70;;;;;;5084498;28;20023;-63
2024/03/12 11:00:35;;;;;;;1.02;0.65;;;20.50;52.70;;;;;;5085540;28;20512;-63
2024/03/12 11:03:02;;;;;;;1.30;0.90;;;20.40;53.20;;;;;;5085954;28;20165;-63
2024/03/12 11:05:27;;;;;;;2.13;1.05;;;20.50;52.70;;;;;;5083378;28;20028;-63
2024/03/12 11:08:00;;;;;;;0.90;0.70;;;20.50;52.70;;;;;;5082754;28;20035;-63
2024/03/12 11:10:30;;;;;;;1.50;0.85;;;20.50;52.70;;;;;;5081053;28;20039;-63
2024/03/12 11:12:59;;;;;;;1.50;0.90;;;20.50;52.80;;;;;;5086835;28;20547;-63
2024/03/12 11:15:25;;;;;;;1.38;0.90;;;20.40;52.70;;;;;;5084751;28;20024;-63
2024/03/12 11:17:51;;;;;;;1.20;0.90;;;20.50;52.70;;;;;;5084013;28;20043;-63
2024/03/12 11:20:18;;;;;;;1.08;0.70;;;20.50;52.70;;;;;;5084363;28;20059;-63
2024/03/12 11:22:45;;;;;;;1.73;0.90;;;20.40;52.70;;;;;;5084116;28;20036;-62
2024/03/12 11:25:15;;;;;;;0.95;0.70;;;20.40;53.20;;;;;;5085628;28;20035;-63
2024/03/12 11:27:43;;;;;;;1.17;0.80;;;20.40;52.70;;;;;;5066189;28;20051;-63
2024/03/12 11:30:18;;;;;;;1.52;0.93;;;20.50;52.80;;;;;;5066490;28;20032;-64
2024/03/12 11:32:50;;;;;;;1.80;0.85;;;20.40;52.70;;;;;;5084114;28;20036;-64
2024/03/12 11:35:22;;;;;;;1.73;0.85;;;20.40;53.20;;;;;;5085218;28;20432;-63
2024/03/12 11:38:00;;;;;;;1.25;0.82;;;20.40;52.70;;;;;;5084030;28;20028;-63
2024/03/12 11:40:39;;;;;;;1.20;0.80;;;20.40;52.70;;;;;;5083411;28;20028;-63
2024/03/12 11:43:10;;;;;;;1.00;0.70;;;20.40;52.70;;;;;;5084395;28;20024;-63
2024/03/12 11:45:40;;;;;;;1.20;0.90;;;20.40;52.70;;;;;;5084388;28;20039;-63
2024/03/12 11:48:10;;;;;;;1.35;0.80;;;20.40;52.70;;;;;;5086012;28;20162;-63
2024/03/12 11:50:39;;;;;;;1.02;0.70;;;20.40;52.70;;;;;;5085361;28;20078;-63
2024/03/12 11:53:28;;;;;;;1.42;0.80;;;20.40;52.70;;;;;;5084405;28;20028;-63
2024/03/12 11:55:55;;;;;;;2.03;0.70;;;20.40;52.80;;;;;;5080010;28;20056;-63
2024/03/12 11:58:26;;;;;;;1.80;0.95;;;20.40;52.70;;;;;;5079437;28;20039;-64
2024/03/12 12:00:52;;;;;;;1.77;0.80;;;20.40;53.30;;;;;;5079290;28;20048;-63
2024/03/12 12:03:18;;;;;;;1.33;1.02;;;20.40;52.70;;;;;;5081451;28;20016;-64
2024/03/12 12:05:44;;;;;;;2.08;0.93;;;20.40;52.80;;;;;;5081179;28;20484;-63
2024/03/12 12:08:16;;;;;;;1.40;0.90;;;20.40;52.70;;;;;;5080751;28;20016;-63
2024/03/12 12:10:54;;;;;;;1.17;0.77;;;20.40;52.80;;;;;;5078594;28;20028;-63
2024/03/12 12:13:20;;;;;;;1.48;0.77;;;20.40;52.80;;;;;;5081545;28;20484;-63
2024/03/12 12:15:56;;;;;;;1.58;0.85;;;20.40;52.80;;;;;;5080459;28;20031;-63
2024/03/12 12:18:22;;;;;;;2.70;1.10;;;20.40;52.70;;;;;;5080714;28;20020;-63
2024/03/12 12:20:48;;;;;;;1.50;0.95;;;20.40;52.70;;;;;;5079124;28;20076;-64
2024/03/12 12:23:14;;;;;;;1.02;0.70;;;20.40;52.70;;;;;;5079630;28;20032;-62
2024/03/12 12:25:39;;;;;;;1.58;0.90;;;20.40;52.70;;;;;;5081812;28;20028;-63
2024/03/12 12:28:08;;;;;;;1.23;0.80;;;20.40;52.70;;;;;;5079900;28;20041;-63
2024/03/12 12:30:35;;;;;;;1.08;0.80;;;20.40;52.70;;;;;;5062486;28;20478;-63
2024/03/12 12:33:02;;;;;;;1.73;1.00;;;20.40;52.70;;;;;;5080844;28;20039;-63
2024/03/12 12:35:28;;;;;;;1.67;1.08;;;20.40;52.70;;;;;;5079202;28;20024;-63
2024/03/12 12:37:55;;;;;;;2.45;1.00;;;20.40;52.70;;;;;;5077348;28;20063;-63
2024/03/12 12:40:21;;;;;;;1.30;0.82;;;20.40;52.70;;;;;;5080404;28;20020;-63
2024/03/12 12:42:51;;;;;;;2.17;1.00;;;20.40;52.70;;;;;;5080168;28;20042;-63
2024/03/12 12:45:17;;;;;;;1.67;0.98;;;20.40;52.70;;;;;;5079750;28;20027;-63
2024/03/12 12:47:49;;;;;;;1.80;1.02;;;20.40;52.70;;;;;;5079934;28;20049;-63
2024/03/12 12:50:31;;;;;;;1.75;0.98;;;20.40;52.70;;;;;;5078240;28;20139;-63
2024/03/12 12:53:01;;;;;;;1.80;1.00;;;20.40;52.70;;;;;;5081568;28;20500;-64
2024/03/12 12:55:28;;;;;;;1.75;1.00;;;20.40;52.70;;;;;;5079375;28;20028;-64
2024/03/12 12:58:06;;;;;;;1.98;0.93;;;20.40;52.70;;;;;;5079838;28;20111;-63